FDX8 CYMX-KMEM
Flight info
| Callsign | FDX8 |
|---|---|
| Flight time | 2h 21m |
| Altitude | 36000 |
| Route | KESKA DCT SAVEX DCT KANUR DCT LETAK Q824 FNT DCT FWA DCT MZZ DCT VHP DCT PXV BLUZZ5 |
| Aircraft | B77L/H-SDE1E2E3FGHIJ2J3J4J5M1RWXY/LB1D1 |
Departure
| Time | 2026-04-21 03:14 |
|---|---|
| Airport | Montreal Mirabel International Airport (CYMX) |
Arrival
| Time | 2026-04-21 05:36 |
|---|---|
| Airport | Memphis International Airport (KMEM) |
| Time | Latitude | Longitude | Altitude | Speed | Heading |
|---|---|---|---|---|---|
| 2026-04-21 02:54 | 45.67867 | -74.04369 | 278 ft | 0 kts | 313° |
| 2026-04-21 03:04 | 45.67867 | -74.04365 | 278 ft | 3 kts | 288° |
| 2026-04-21 03:05 | 45.67867 | -74.04369 | 281 ft | 2 kts | 271° |
| 2026-04-21 03:05 | 45.67867 | -74.04346 | 281 ft | 3 kts | 258° |
| 2026-04-21 03:05 | 45.67872 | -74.04325 | 280 ft | 3 kts | 226° |
| 2026-04-21 03:05 | 45.67885 | -74.04311 | 284 ft | 3 kts | 200° |
| 2026-04-21 03:06 | 45.67903 | -74.04303 | 282 ft | 2 kts | 188° |
| 2026-04-21 03:06 | 45.67908 | -74.04302 | 282 ft | 0 kts | 188° |
| 2026-04-21 03:10 | 45.67848 | -74.04313 | 278 ft | 16 kts | 186° |
| 2026-04-21 03:11 | 45.67736 | -74.04336 | 278 ft | 16 kts | 188° |
| 2026-04-21 03:11 | 45.67628 | -74.04320 | 279 ft | 16 kts | 163° |
| 2026-04-21 03:11 | 45.67518 | -74.04331 | 279 ft | 16 kts | 189° |
| 2026-04-21 03:11 | 45.67357 | -74.04362 | 280 ft | 27 kts | 187° |
| 2026-04-21 03:12 | 45.67204 | -74.04396 | 281 ft | 22 kts | 189° |
| 2026-04-21 03:12 | 45.67066 | -74.04349 | 282 ft | 22 kts | 121° |
| 2026-04-21 03:12 | 45.67024 | -74.04199 | 282 ft | 15 kts | 137° |
| 2026-04-21 03:12 | 45.66923 | -74.04181 | 283 ft | 15 kts | 185° |
| 2026-04-21 03:13 | 45.66773 | -74.04209 | 284 ft | 23 kts | 189° |
| 2026-04-21 03:13 | 45.66627 | -74.04283 | 283 ft | 23 kts | 229° |
| 2026-04-21 03:13 | 45.66617 | -74.04510 | 284 ft | 31 kts | 277° |
| 2026-04-21 03:13 | 45.66696 | -74.05275 | 278 ft | 126 kts | 279° |
| 2026-04-21 03:14 | 45.66870 | -74.06919 | 388 ft | 197 kts | 279° |
| 2026-04-21 03:14 | 45.67084 | -74.08954 | 1041 ft | 216 kts | 274° |
| 2026-04-21 03:14 | 45.66972 | -74.11150 | 2110 ft | 226 kts | 258° |
| 2026-04-21 03:14 | 45.66402 | -74.13262 | 3209 ft | 236 kts | 243° |
| 2026-04-21 03:15 | 45.65555 | -74.15286 | 3989 ft | 243 kts | 239° |
| 2026-04-21 03:15 | 45.64617 | -74.17357 | 4921 ft | 246 kts | 238° |
| 2026-04-21 03:15 | 45.63683 | -74.19388 | 5861 ft | 249 kts | 238° |
| 2026-04-21 03:15 | 45.62724 | -74.21471 | 6736 ft | 253 kts | 238° |
| 2026-04-21 03:16 | 45.61747 | -74.23595 | 7553 ft | 258 kts | 239° |
| 2026-04-21 03:16 | 45.60755 | -74.25755 | 8377 ft | 262 kts | 239° |
| 2026-04-21 03:16 | 45.59747 | -74.27956 | 9183 ft | 267 kts | 239° |
| 2026-04-21 03:16 | 45.58721 | -74.30196 | 10006 ft | 272 kts | 239° |
| 2026-04-21 03:17 | 45.57669 | -74.32497 | 10594 ft | 285 kts | 240° |
| 2026-04-21 03:17 | 45.56535 | -74.34985 | 10796 ft | 311 kts | 240° |
| 2026-04-21 03:17 | 45.55305 | -74.37678 | 11009 ft | 336 kts | 239° |
| 2026-04-21 03:17 | 45.53987 | -74.40555 | 11422 ft | 353 kts | 239° |
| 2026-04-21 03:18 | 45.52638 | -74.43545 | 12091 ft | 362 kts | 243° |
| 2026-04-21 03:18 | 45.51530 | -74.46787 | 12842 ft | 366 kts | 251° |
| 2026-04-21 03:18 | 45.50737 | -74.50194 | 13711 ft | 367 kts | 259° |
| 2026-04-21 03:18 | 45.50202 | -74.53762 | 14503 ft | 370 kts | 262° |
| 2026-04-21 03:19 | 45.49711 | -74.57386 | 15235 ft | 375 kts | 263° |
| 2026-04-21 03:19 | 45.49219 | -74.61057 | 15994 ft | 379 kts | 264° |
| 2026-04-21 03:19 | 45.48717 | -74.64761 | 16736 ft | 383 kts | 264° |
| 2026-04-21 03:19 | 45.48202 | -74.68507 | 17479 ft | 387 kts | 264° |
| 2026-04-21 03:20 | 45.47674 | -74.72301 | 18192 ft | 392 kts | 265° |
| 2026-04-21 03:20 | 45.47136 | -74.76135 | 18860 ft | 397 kts | 265° |
| 2026-04-21 03:20 | 45.46589 | -74.80004 | 19459 ft | 401 kts | 265° |
| 2026-04-21 03:20 | 45.46033 | -74.83925 | 20070 ft | 405 kts | 266° |
| 2026-04-21 03:21 | 45.45469 | -74.87885 | 20674 ft | 409 kts | 266° |
| 2026-04-21 03:21 | 45.44897 | -74.91889 | 21272 ft | 413 kts | 266° |
| 2026-04-21 03:21 | 45.44329 | -74.95863 | 21875 ft | 417 kts | 266° |
| 2026-04-21 03:21 | 45.43746 | -74.99929 | 22448 ft | 421 kts | 266° |
| 2026-04-21 03:22 | 45.43212 | -75.04031 | 23032 ft | 421 kts | 270° |
| 2026-04-21 03:22 | 45.42957 | -75.08175 | 23604 ft | 419 kts | 276° |
| 2026-04-21 03:22 | 45.42894 | -75.12342 | 24138 ft | 422 kts | 276° |
| 2026-04-21 03:22 | 45.42832 | -75.16539 | 24631 ft | 425 kts | 276° |
| 2026-04-21 03:23 | 45.42763 | -75.20750 | 25125 ft | 428 kts | 276° |
| 2026-04-21 03:23 | 45.42687 | -75.25000 | 25598 ft | 431 kts | 276° |
| 2026-04-21 03:23 | 45.42603 | -75.29282 | 26061 ft | 434 kts | 276° |
| 2026-04-21 03:23 | 45.42515 | -75.33595 | 26524 ft | 437 kts | 276° |
| 2026-04-21 03:24 | 45.42422 | -75.37951 | 26980 ft | 441 kts | 276° |
| 2026-04-21 03:24 | 45.42327 | -75.42263 | 27416 ft | 444 kts | 276° |
| 2026-04-21 03:24 | 45.42228 | -75.46665 | 27846 ft | 447 kts | 276° |
| 2026-04-21 03:24 | 45.42127 | -75.51104 | 28295 ft | 450 kts | 276° |
| 2026-04-21 03:25 | 45.42023 | -75.55567 | 28712 ft | 453 kts | 276° |
| 2026-04-21 03:25 | 45.41917 | -75.60058 | 29120 ft | 456 kts | 276° |
| 2026-04-21 03:25 | 45.41808 | -75.64593 | 29531 ft | 458 kts | 276° |
| 2026-04-21 03:25 | 45.41697 | -75.69116 | 30057 ft | 457 kts | 276° |
| 2026-04-21 03:26 | 45.41582 | -75.73635 | 30639 ft | 455 kts | 276° |
| 2026-04-21 03:26 | 45.41467 | -75.78123 | 31110 ft | 453 kts | 275° |
| 2026-04-21 03:26 | 45.41352 | -75.82615 | 31519 ft | 453 kts | 275° |
| 2026-04-21 03:26 | 45.41238 | -75.87047 | 31895 ft | 454 kts | 275° |
| 2026-04-21 03:27 | 45.41120 | -75.91556 | 32289 ft | 453 kts | 275° |
| 2026-04-21 03:27 | 45.41001 | -75.96042 | 32707 ft | 453 kts | 275° |
| 2026-04-21 03:27 | 45.40880 | -76.00517 | 33115 ft | 452 kts | 275° |
| 2026-04-21 03:27 | 45.40758 | -76.04991 | 33497 ft | 452 kts | 275° |
| 2026-04-21 03:28 | 45.40634 | -76.09464 | 33877 ft | 451 kts | 274° |
| 2026-04-21 03:28 | 45.40509 | -76.13926 | 34243 ft | 451 kts | 274° |
| 2026-04-21 03:28 | 45.40381 | -76.18383 | 34542 ft | 451 kts | 274° |
| 2026-04-21 03:28 | 45.40106 | -76.22790 | 34799 ft | 456 kts | 268° |
| 2026-04-21 03:29 | 45.39539 | -76.27251 | 35061 ft | 460 kts | 263° |
| 2026-04-21 03:29 | 45.38671 | -76.31663 | 35340 ft | 465 kts | 258° |
| 2026-04-21 03:29 | 45.37645 | -76.36025 | 35622 ft | 465 kts | 257° |
| 2026-04-21 03:29 | 45.36609 | -76.40373 | 35871 ft | 465 kts | 257° |
| 2026-04-21 03:30 | 45.35575 | -76.44730 | 36130 ft | 464 kts | 257° |
| 2026-04-21 03:30 | 45.34544 | -76.49100 | 36269 ft | 467 kts | 257° |
| 2026-04-21 03:30 | 45.32481 | -76.57896 | 36332 ft | 468 kts | 257° |
| 2026-04-21 03:31 | 45.30438 | -76.66588 | 36325 ft | 463 kts | 257° |
| 2026-04-21 03:31 | 45.28398 | -76.75238 | 36333 ft | 460 kts | 258° |
| 2026-04-21 03:32 | 45.26359 | -76.83857 | 36336 ft | 459 kts | 258° |
| 2026-04-21 03:32 | 45.24332 | -76.92383 | 36328 ft | 458 kts | 258° |
| 2026-04-21 03:33 | 45.22287 | -77.00948 | 36338 ft | 459 kts | 258° |
| 2026-04-21 03:33 | 45.20233 | -77.09524 | 36338 ft | 459 kts | 258° |
| 2026-04-21 03:34 | 45.18171 | -77.18107 | 36343 ft | 461 kts | 258° |
| 2026-04-21 03:34 | 45.16094 | -77.26722 | 36329 ft | 462 kts | 258° |
| 2026-04-21 03:35 | 45.14018 | -77.35295 | 36345 ft | 463 kts | 258° |
| 2026-04-21 03:35 | 45.11919 | -77.43928 | 36341 ft | 464 kts | 258° |
| 2026-04-21 03:36 | 45.09808 | -77.52576 | 36336 ft | 464 kts | 258° |
| 2026-04-21 03:36 | 45.07694 | -77.61208 | 36339 ft | 464 kts | 258° |
| 2026-04-21 03:37 | 45.05573 | -77.69829 | 36340 ft | 464 kts | 258° |
| 2026-04-21 03:37 | 45.03447 | -77.78444 | 36337 ft | 464 kts | 258° |
| 2026-04-21 03:38 | 45.01316 | -77.87046 | 36339 ft | 463 kts | 258° |
| 2026-04-21 03:38 | 44.99195 | -77.95574 | 36347 ft | 463 kts | 258° |
| 2026-04-21 03:39 | 44.97055 | -78.04148 | 36339 ft | 462 kts | 258° |
| 2026-04-21 03:39 | 44.94907 | -78.12725 | 36339 ft | 462 kts | 258° |
| 2026-04-21 03:40 | 44.92756 | -78.21281 | 36346 ft | 462 kts | 258° |
| 2026-04-21 03:40 | 44.90965 | -78.28377 | 36345 ft | 462 kts | 258° |
| 2026-04-21 03:41 | 44.88802 | -78.36921 | 36354 ft | 462 kts | 258° |
| 2026-04-21 03:41 | 44.86631 | -78.45464 | 36346 ft | 463 kts | 258° |
| 2026-04-21 03:42 | 44.84455 | -78.54000 | 36355 ft | 463 kts | 258° |
| 2026-04-21 03:42 | 44.82284 | -78.62483 | 36356 ft | 463 kts | 258° |
| 2026-04-21 03:43 | 44.80091 | -78.71025 | 36351 ft | 464 kts | 258° |
| 2026-04-21 03:43 | 44.77873 | -78.79567 | 36356 ft | 465 kts | 256° |
| 2026-04-21 03:44 | 44.75049 | -78.87880 | 36351 ft | 472 kts | 251° |
| 2026-04-21 03:44 | 44.72034 | -78.96040 | 36353 ft | 473 kts | 250° |
| 2026-04-21 03:45 | 44.69007 | -79.04242 | 36346 ft | 473 kts | 251° |
| 2026-04-21 03:45 | 44.65994 | -79.12462 | 36349 ft | 473 kts | 251° |
| 2026-04-21 03:46 | 44.62991 | -79.20664 | 36349 ft | 472 kts | 251° |
| 2026-04-21 03:46 | 44.59981 | -79.28864 | 36351 ft | 472 kts | 251° |
| 2026-04-21 03:47 | 44.56961 | -79.37063 | 36355 ft | 472 kts | 251° |
| 2026-04-21 03:47 | 44.53939 | -79.45240 | 36361 ft | 472 kts | 251° |
| 2026-04-21 03:48 | 44.50912 | -79.53406 | 36359 ft | 472 kts | 251° |
| 2026-04-21 03:48 | 44.47900 | -79.61511 | 36362 ft | 472 kts | 251° |
| 2026-04-21 03:49 | 44.44862 | -79.69657 | 36359 ft | 471 kts | 251° |
| 2026-04-21 03:49 | 44.41823 | -79.77785 | 36366 ft | 471 kts | 251° |
| 2026-04-21 03:50 | 44.38779 | -79.85902 | 36358 ft | 471 kts | 251° |
| 2026-04-21 03:50 | 44.35736 | -79.93993 | 36362 ft | 470 kts | 251° |
| 2026-04-21 03:51 | 44.32692 | -80.02062 | 36360 ft | 470 kts | 251° |
| 2026-04-21 03:51 | 44.29628 | -80.10162 | 36359 ft | 469 kts | 251° |
| 2026-04-21 03:52 | 44.26595 | -80.18155 | 36354 ft | 469 kts | 251° |
| 2026-04-21 03:52 | 44.23537 | -80.26191 | 36350 ft | 468 kts | 250° |
| 2026-04-21 03:53 | 44.20477 | -80.34212 | 36345 ft | 467 kts | 250° |
| 2026-04-21 03:53 | 44.17412 | -80.42220 | 36347 ft | 467 kts | 250° |
| 2026-04-21 03:54 | 44.14352 | -80.50192 | 36346 ft | 466 kts | 250° |
| 2026-04-21 03:54 | 44.11301 | -80.58121 | 36349 ft | 466 kts | 250° |
| 2026-04-21 03:55 | 44.08256 | -80.66011 | 36344 ft | 465 kts | 250° |
| 2026-04-21 03:55 | 44.05182 | -80.73952 | 36344 ft | 465 kts | 250° |
| 2026-04-21 03:56 | 44.02111 | -80.81865 | 36349 ft | 465 kts | 250° |
| 2026-04-21 03:56 | 43.99036 | -80.89765 | 36357 ft | 465 kts | 250° |
| 2026-04-21 03:57 | 43.95956 | -80.97656 | 36335 ft | 465 kts | 250° |
| 2026-04-21 03:57 | 43.92875 | -81.05528 | 36349 ft | 465 kts | 250° |
| 2026-04-21 03:58 | 43.89784 | -81.13403 | 36345 ft | 465 kts | 250° |
| 2026-04-21 03:58 | 43.86688 | -81.21270 | 36339 ft | 465 kts | 250° |
| 2026-04-21 03:59 | 43.83595 | -81.29108 | 36341 ft | 464 kts | 250° |
| 2026-04-21 04:00 | 43.78948 | -81.40842 | 36342 ft | 464 kts | 250° |
| 2026-04-21 04:00 | 43.75825 | -81.48707 | 36342 ft | 464 kts | 250° |
| 2026-04-21 04:01 | 43.72712 | -81.56518 | 36342 ft | 464 kts | 249° |
| 2026-04-21 04:01 | 43.69550 | -81.64317 | 36337 ft | 465 kts | 249° |
| 2026-04-21 04:02 | 43.66389 | -81.72049 | 36339 ft | 465 kts | 249° |
| 2026-04-21 04:02 | 43.63192 | -81.79863 | 36336 ft | 465 kts | 249° |
| 2026-04-21 04:03 | 43.60033 | -81.87577 | 36332 ft | 464 kts | 249° |
| 2026-04-21 04:03 | 43.56829 | -81.95380 | 36337 ft | 464 kts | 249° |
| 2026-04-21 04:04 | 43.53665 | -82.03068 | 36333 ft | 464 kts | 249° |
| 2026-04-21 04:04 | 43.50477 | -82.10795 | 36330 ft | 464 kts | 249° |
| 2026-04-21 04:05 | 43.47276 | -82.18517 | 36320 ft | 465 kts | 248° |
| 2026-04-21 04:05 | 43.44134 | -82.26284 | 36329 ft | 464 kts | 249° |
| 2026-04-21 04:06 | 43.41051 | -82.34094 | 36319 ft | 465 kts | 249° |
| 2026-04-21 04:06 | 43.37963 | -82.41857 | 36315 ft | 466 kts | 249° |
| 2026-04-21 04:07 | 43.34837 | -82.49659 | 36292 ft | 466 kts | 249° |
| 2026-04-21 04:07 | 43.31704 | -82.57450 | 36294 ft | 465 kts | 249° |
| 2026-04-21 04:08 | 43.28571 | -82.65228 | 36296 ft | 465 kts | 249° |
| 2026-04-21 04:08 | 43.25588 | -82.73076 | 36287 ft | 458 kts | 255° |
| 2026-04-21 04:09 | 43.23308 | -82.81204 | 36284 ft | 455 kts | 256° |
| 2026-04-21 04:09 | 43.21087 | -82.89278 | 36289 ft | 455 kts | 256° |
| 2026-04-21 04:10 | 43.18821 | -82.97397 | 36291 ft | 456 kts | 256° |
| 2026-04-21 04:10 | 43.16534 | -83.05507 | 36287 ft | 455 kts | 256° |
| 2026-04-21 04:11 | 43.14242 | -83.13595 | 36288 ft | 456 kts | 256° |
| 2026-04-21 04:11 | 43.11955 | -83.21642 | 36288 ft | 455 kts | 256° |
| 2026-04-21 04:12 | 43.09649 | -83.29731 | 36283 ft | 455 kts | 256° |
| 2026-04-21 04:12 | 43.07340 | -83.37807 | 36281 ft | 455 kts | 256° |
| 2026-04-21 04:13 | 43.05030 | -83.45860 | 36274 ft | 455 kts | 255° |
| 2026-04-21 04:13 | 43.02714 | -83.53911 | 36266 ft | 454 kts | 255° |
| 2026-04-21 04:14 | 43.00412 | -83.61892 | 36267 ft | 454 kts | 255° |
| 2026-04-21 04:14 | 42.97979 | -83.69918 | 36257 ft | 459 kts | 248° |
| 2026-04-21 04:14 | 42.96168 | -83.73490 | 36278 ft | 470 kts | 236° |
| 2026-04-21 04:15 | 42.93825 | -83.76679 | 36262 ft | 481 kts | 226° |
| 2026-04-21 04:15 | 42.88035 | -83.81517 | 36265 ft | 492 kts | 215° |
| 2026-04-21 04:16 | 42.81952 | -83.85882 | 36273 ft | 495 kts | 214° |
| 2026-04-21 04:16 | 42.75866 | -83.90293 | 36267 ft | 496 kts | 215° |
| 2026-04-21 04:17 | 42.69804 | -83.94774 | 36268 ft | 497 kts | 216° |
| 2026-04-21 04:17 | 42.63732 | -83.99292 | 36267 ft | 497 kts | 216° |
| 2026-04-21 04:18 | 42.57656 | -84.03805 | 36261 ft | 498 kts | 216° |
| 2026-04-21 04:18 | 42.51606 | -84.08284 | 36263 ft | 498 kts | 215° |
| 2026-04-21 04:19 | 42.45525 | -84.12773 | 36267 ft | 498 kts | 215° |
| 2026-04-21 04:19 | 42.39436 | -84.17257 | 36262 ft | 497 kts | 215° |
| 2026-04-21 04:20 | 42.33362 | -84.21721 | 36267 ft | 497 kts | 215° |
| 2026-04-21 04:20 | 42.27296 | -84.26169 | 36263 ft | 496 kts | 215° |
| 2026-04-21 04:21 | 42.21226 | -84.30610 | 36266 ft | 496 kts | 215° |
| 2026-04-21 04:21 | 42.15165 | -84.35035 | 36262 ft | 495 kts | 215° |
| 2026-04-21 04:22 | 42.09099 | -84.39454 | 36272 ft | 495 kts | 215° |
| 2026-04-21 04:22 | 42.03043 | -84.43857 | 36266 ft | 495 kts | 215° |
| 2026-04-21 04:23 | 41.97023 | -84.48223 | 36268 ft | 495 kts | 215° |
| 2026-04-21 04:23 | 41.90965 | -84.52608 | 36262 ft | 494 kts | 215° |
| 2026-04-21 04:24 | 41.84909 | -84.56982 | 36269 ft | 494 kts | 215° |
| 2026-04-21 04:24 | 41.78847 | -84.61349 | 36261 ft | 494 kts | 215° |
| 2026-04-21 04:25 | 41.72785 | -84.65708 | 36272 ft | 494 kts | 215° |
| 2026-04-21 04:25 | 41.66723 | -84.70058 | 36275 ft | 494 kts | 215° |
| 2026-04-21 04:26 | 41.61693 | -84.73660 | 36285 ft | 494 kts | 215° |
| 2026-04-21 04:26 | 41.55612 | -84.78006 | 36282 ft | 494 kts | 214° |
| 2026-04-21 04:27 | 41.49526 | -84.82347 | 36277 ft | 495 kts | 215° |
| 2026-04-21 04:27 | 41.42471 | -84.87367 | 36266 ft | 495 kts | 214° |
| 2026-04-21 04:28 | 41.37419 | -84.90954 | 36265 ft | 495 kts | 214° |
| 2026-04-21 04:28 | 41.31346 | -84.95257 | 36273 ft | 495 kts | 214° |
| 2026-04-21 04:29 | 41.24259 | -85.00268 | 36257 ft | 496 kts | 214° |
| 2026-04-21 04:29 | 41.19144 | -85.03876 | 36278 ft | 496 kts | 214° |
| 2026-04-21 04:30 | 41.13075 | -85.08151 | 36286 ft | 496 kts | 214° |
| 2026-04-21 04:30 | 41.06959 | -85.12449 | 36271 ft | 496 kts | 214° |
| 2026-04-21 04:31 | 41.00882 | -85.16711 | 36297 ft | 496 kts | 214° |
| 2026-04-21 04:31 | 40.95092 | -85.21488 | 36286 ft | 485 kts | 225° |
| 2026-04-21 04:32 | 40.89753 | -85.26992 | 36298 ft | 485 kts | 225° |
| 2026-04-21 04:32 | 40.84477 | -85.32430 | 36269 ft | 485 kts | 225° |
| 2026-04-21 04:32 | 40.81772 | -85.35190 | 35892 ft | 485 kts | 225° |
| 2026-04-21 04:33 | 40.79141 | -85.37860 | 36038 ft | 484 kts | 225° |
| 2026-04-21 04:33 | 40.76445 | -85.40588 | 36147 ft | 487 kts | 225° |
| 2026-04-21 04:33 | 40.73751 | -85.43311 | 36208 ft | 489 kts | 225° |
| 2026-04-21 04:34 | 40.68310 | -85.48802 | 36270 ft | 493 kts | 224° |
| 2026-04-21 04:34 | 40.62870 | -85.54280 | 36278 ft | 496 kts | 224° |
| 2026-04-21 04:35 | 40.57382 | -85.59794 | 36271 ft | 496 kts | 224° |
| 2026-04-21 04:35 | 40.51883 | -85.65310 | 36268 ft | 494 kts | 224° |
| 2026-04-21 04:36 | 40.46430 | -85.70801 | 36267 ft | 491 kts | 225° |
| 2026-04-21 04:36 | 40.41065 | -85.76317 | 36267 ft | 489 kts | 225° |
| 2026-04-21 04:36 | 40.38392 | -85.79073 | 35940 ft | 488 kts | 225° |
| 2026-04-21 04:37 | 40.35743 | -85.81800 | 35960 ft | 487 kts | 225° |
| 2026-04-21 04:37 | 40.30429 | -85.87247 | 36014 ft | 486 kts | 225° |
| 2026-04-21 04:38 | 40.25092 | -85.92697 | 36095 ft | 485 kts | 225° |
| 2026-04-21 04:38 | 40.19793 | -85.98096 | 36268 ft | 485 kts | 225° |
| 2026-04-21 04:39 | 40.14461 | -86.03519 | 36269 ft | 485 kts | 225° |
| 2026-04-21 04:39 | 40.09124 | -86.08935 | 36264 ft | 486 kts | 225° |
| 2026-04-21 04:40 | 40.03762 | -86.14367 | 36266 ft | 487 kts | 225° |
| 2026-04-21 04:40 | 39.98410 | -86.19777 | 36266 ft | 488 kts | 225° |
| 2026-04-21 04:41 | 39.93029 | -86.25204 | 36266 ft | 489 kts | 225° |
| 2026-04-21 04:41 | 39.87643 | -86.30628 | 36272 ft | 490 kts | 225° |
| 2026-04-21 04:42 | 39.82226 | -86.36053 | 36270 ft | 491 kts | 224° |
| 2026-04-21 04:42 | 39.76408 | -86.40828 | 36276 ft | 498 kts | 217° |
| 2026-04-21 04:43 | 39.70396 | -86.45314 | 36275 ft | 499 kts | 217° |
| 2026-04-21 04:43 | 39.64366 | -86.49820 | 36273 ft | 498 kts | 217° |
| 2026-04-21 04:44 | 39.58403 | -86.54315 | 36271 ft | 498 kts | 218° |
| 2026-04-21 04:44 | 39.52418 | -86.58839 | 36267 ft | 497 kts | 218° |
| 2026-04-21 04:45 | 39.46439 | -86.63351 | 36264 ft | 497 kts | 218° |
| 2026-04-21 04:45 | 39.40467 | -86.67846 | 36279 ft | 497 kts | 218° |
| 2026-04-21 04:46 | 39.34497 | -86.72329 | 36270 ft | 497 kts | 218° |
| 2026-04-21 04:46 | 39.28516 | -86.76812 | 36269 ft | 497 kts | 218° |
| 2026-04-21 04:47 | 39.22568 | -86.81260 | 36274 ft | 496 kts | 218° |
| 2026-04-21 04:47 | 39.16595 | -86.85719 | 36275 ft | 496 kts | 217° |
| 2026-04-21 04:48 | 39.10583 | -86.90197 | 36272 ft | 496 kts | 218° |
| 2026-04-21 04:48 | 39.04623 | -86.94629 | 36272 ft | 496 kts | 217° |
| 2026-04-21 04:49 | 38.98663 | -86.99051 | 36272 ft | 496 kts | 217° |
| 2026-04-21 04:49 | 38.92665 | -87.03492 | 36275 ft | 496 kts | 217° |
| 2026-04-21 04:50 | 38.86690 | -87.07909 | 36275 ft | 496 kts | 217° |
| 2026-04-21 04:50 | 38.80729 | -87.12306 | 36281 ft | 495 kts | 217° |
| 2026-04-21 04:51 | 38.74733 | -87.16720 | 36282 ft | 495 kts | 217° |
| 2026-04-21 04:51 | 38.68798 | -87.21081 | 36284 ft | 495 kts | 217° |
| 2026-04-21 04:52 | 38.62831 | -87.25457 | 36282 ft | 495 kts | 217° |
| 2026-04-21 04:52 | 38.56819 | -87.29858 | 36281 ft | 495 kts | 217° |
| 2026-04-21 04:53 | 38.50849 | -87.34219 | 36281 ft | 495 kts | 217° |
| 2026-04-21 04:53 | 38.44887 | -87.38567 | 36274 ft | 495 kts | 217° |
| 2026-04-21 04:54 | 38.38874 | -87.42942 | 36269 ft | 495 kts | 217° |
| 2026-04-21 04:54 | 38.32930 | -87.47260 | 36281 ft | 495 kts | 217° |
| 2026-04-21 04:55 | 38.26964 | -87.51585 | 36280 ft | 495 kts | 217° |
| 2026-04-21 04:55 | 38.20953 | -87.55934 | 36286 ft | 495 kts | 217° |
| 2026-04-21 04:56 | 38.14990 | -87.60241 | 36287 ft | 495 kts | 217° |
| 2026-04-21 04:56 | 38.08971 | -87.64579 | 36291 ft | 494 kts | 217° |
| 2026-04-21 04:57 | 38.03031 | -87.68854 | 36284 ft | 494 kts | 217° |
| 2026-04-21 04:57 | 37.97046 | -87.73154 | 36301 ft | 494 kts | 217° |
| 2026-04-21 04:58 | 37.91053 | -87.77388 | 36294 ft | 496 kts | 214° |
| 2026-04-21 04:58 | 37.84799 | -87.81247 | 36291 ft | 498 kts | 212° |
| 2026-04-21 04:59 | 37.78566 | -87.84968 | 36291 ft | 497 kts | 212° |
| 2026-04-21 04:59 | 37.72339 | -87.88761 | 36283 ft | 496 kts | 213° |
| 2026-04-21 05:00 | 37.66138 | -87.92566 | 36273 ft | 496 kts | 213° |
| 2026-04-21 05:00 | 37.56792 | -87.98271 | 36280 ft | 495 kts | 212° |
| 2026-04-21 05:01 | 37.50627 | -88.02011 | 36281 ft | 494 kts | 212° |
| 2026-04-21 05:01 | 37.44439 | -88.05760 | 36275 ft | 494 kts | 212° |
| 2026-04-21 05:02 | 37.38247 | -88.09508 | 36280 ft | 493 kts | 212° |
| 2026-04-21 05:02 | 37.32052 | -88.13251 | 36273 ft | 492 kts | 212° |
| 2026-04-21 05:03 | 37.25885 | -88.16970 | 36275 ft | 492 kts | 212° |
| 2026-04-21 05:03 | 37.19712 | -88.20687 | 36286 ft | 491 kts | 212° |
| 2026-04-21 05:04 | 37.13558 | -88.24386 | 36275 ft | 491 kts | 212° |
| 2026-04-21 05:04 | 37.07417 | -88.28069 | 36263 ft | 491 kts | 212° |
| 2026-04-21 05:05 | 37.01367 | -88.31677 | 36251 ft | 472 kts | 212° |
| 2026-04-21 05:05 | 36.95433 | -88.35218 | 36270 ft | 468 kts | 212° |
| 2026-04-21 05:06 | 36.89579 | -88.38717 | 36274 ft | 466 kts | 212° |
| 2026-04-21 05:06 | 36.83771 | -88.42180 | 36280 ft | 464 kts | 212° |
| 2026-04-21 05:07 | 36.77953 | -88.45641 | 36285 ft | 463 kts | 212° |
| 2026-04-21 05:07 | 36.72103 | -88.49113 | 36296 ft | 464 kts | 212° |
| 2026-04-21 05:08 | 36.66298 | -88.52553 | 36294 ft | 465 kts | 212° |
| 2026-04-21 05:08 | 36.60429 | -88.56026 | 36291 ft | 466 kts | 212° |
| 2026-04-21 05:09 | 36.54594 | -88.59472 | 36289 ft | 467 kts | 212° |
| 2026-04-21 05:09 | 36.48707 | -88.62942 | 36286 ft | 468 kts | 212° |
| 2026-04-21 05:10 | 36.42831 | -88.66400 | 36283 ft | 469 kts | 212° |
| 2026-04-21 05:10 | 36.36903 | -88.69883 | 36273 ft | 468 kts | 212° |
| 2026-04-21 05:11 | 36.31037 | -88.73325 | 36271 ft | 467 kts | 212° |
| 2026-04-21 05:11 | 36.25173 | -88.76758 | 36276 ft | 466 kts | 212° |
| 2026-04-21 05:12 | 36.19345 | -88.80162 | 36271 ft | 464 kts | 212° |
| 2026-04-21 05:12 | 36.13492 | -88.83576 | 36276 ft | 463 kts | 212° |
| 2026-04-21 05:13 | 36.08629 | -88.86409 | 36273 ft | 462 kts | 212° |
| 2026-04-21 05:13 | 36.01882 | -88.90335 | 36277 ft | 461 kts | 212° |
| 2026-04-21 05:14 | 35.97038 | -88.93148 | 36279 ft | 460 kts | 212° |
| 2026-04-21 05:14 | 35.91280 | -88.96485 | 35845 ft | 452 kts | 212° |
| 2026-04-21 05:15 | 35.88439 | -88.98131 | 35257 ft | 452 kts | 211° |
| 2026-04-21 05:15 | 35.85617 | -88.99764 | 34389 ft | 445 kts | 211° |
| 2026-04-21 05:15 | 35.82803 | -89.01396 | 32686 ft | 451 kts | 211° |
| 2026-04-21 05:15 | 35.79932 | -89.03062 | 30985 ft | 459 kts | 210° |
| 2026-04-21 05:16 | 35.77028 | -89.04740 | 29416 ft | 461 kts | 209° |
| 2026-04-21 05:16 | 35.74214 | -89.06575 | 27962 ft | 452 kts | 217° |
| 2026-04-21 05:16 | 35.71705 | -89.08833 | 26611 ft | 443 kts | 224° |
| 2026-04-21 05:16 | 35.69513 | -89.11429 | 25354 ft | 433 kts | 232° |
| 2026-04-21 05:17 | 35.67518 | -89.14173 | 24190 ft | 427 kts | 231° |
| 2026-04-21 05:17 | 35.65508 | -89.16817 | 22922 ft | 421 kts | 229° |
| 2026-04-21 05:17 | 35.63503 | -89.19398 | 21700 ft | 413 kts | 229° |
| 2026-04-21 05:17 | 35.61526 | -89.21937 | 20390 ft | 409 kts | 229° |
| 2026-04-21 05:18 | 35.59601 | -89.24448 | 19051 ft | 407 kts | 230° |
| 2026-04-21 05:18 | 35.57778 | -89.27092 | 17660 ft | 403 kts | 233° |
| 2026-04-21 05:18 | 35.56036 | -89.29762 | 16291 ft | 397 kts | 234° |
| 2026-04-21 05:18 | 35.54321 | -89.32399 | 14955 ft | 392 kts | 234° |
| 2026-04-21 05:19 | 35.52600 | -89.35003 | 13782 ft | 397 kts | 233° |
| 2026-04-21 05:19 | 35.50852 | -89.37614 | 13356 ft | 390 kts | 233° |
| 2026-04-21 05:19 | 35.49162 | -89.40121 | 13250 ft | 374 kts | 232° |
| 2026-04-21 05:19 | 35.47397 | -89.42393 | 13151 ft | 361 kts | 225° |
| 2026-04-21 05:20 | 35.45576 | -89.44426 | 13044 ft | 347 kts | 224° |
| 2026-04-21 05:20 | 35.43813 | -89.46367 | 12958 ft | 334 kts | 224° |
| 2026-04-21 05:20 | 35.42124 | -89.48237 | 12868 ft | 321 kts | 225° |
| 2026-04-21 05:20 | 35.40505 | -89.50045 | 12773 ft | 308 kts | 225° |
| 2026-04-21 05:21 | 35.38959 | -89.51781 | 12677 ft | 295 kts | 225° |
| 2026-04-21 05:21 | 35.37474 | -89.53453 | 12536 ft | 284 kts | 225° |
| 2026-04-21 05:21 | 35.36058 | -89.55049 | 12319 ft | 276 kts | 225° |
| 2026-04-21 05:21 | 35.34638 | -89.56648 | 11998 ft | 272 kts | 225° |
| 2026-04-21 05:22 | 35.33264 | -89.58196 | 11616 ft | 271 kts | 225° |
| 2026-04-21 05:22 | 35.31905 | -89.59789 | 11237 ft | 269 kts | 228° |
| 2026-04-21 05:22 | 35.30612 | -89.61443 | 10870 ft | 268 kts | 229° |
| 2026-04-21 05:22 | 35.29332 | -89.63092 | 10497 ft | 266 kts | 228° |
| 2026-04-21 05:23 | 35.28059 | -89.64722 | 10158 ft | 263 kts | 228° |
| 2026-04-21 05:23 | 35.26799 | -89.66328 | 9960 ft | 260 kts | 227° |
| 2026-04-21 05:23 | 35.25521 | -89.67957 | 9988 ft | 271 kts | 227° |
| 2026-04-21 05:23 | 35.24209 | -89.69625 | 9974 ft | 273 kts | 227° |
| 2026-04-21 05:24 | 35.22886 | -89.71308 | 9978 ft | 275 kts | 228° |
| 2026-04-21 05:24 | 35.21559 | -89.72994 | 9965 ft | 276 kts | 227° |
| 2026-04-21 05:24 | 35.20228 | -89.74681 | 9966 ft | 276 kts | 227° |
| 2026-04-21 05:24 | 35.18897 | -89.76366 | 9971 ft | 275 kts | 227° |
| 2026-04-21 05:25 | 35.17566 | -89.78055 | 9968 ft | 275 kts | 227° |
| 2026-04-21 05:25 | 35.16255 | -89.79717 | 9990 ft | 275 kts | 227° |
| 2026-04-21 05:25 | 35.14914 | -89.81407 | 9822 ft | 273 kts | 227° |
| 2026-04-21 05:25 | 35.13621 | -89.83039 | 9537 ft | 269 kts | 227° |
| 2026-04-21 05:26 | 35.12321 | -89.84680 | 9169 ft | 266 kts | 227° |
| 2026-04-21 05:26 | 35.10916 | -89.86115 | 8667 ft | 265 kts | 206° |
| 2026-04-21 05:26 | 35.09127 | -89.86646 | 8227 ft | 268 kts | 183° |
| 2026-04-21 05:26 | 35.07272 | -89.86617 | 7906 ft | 264 kts | 181° |
| 2026-04-21 05:27 | 35.05441 | -89.86580 | 7554 ft | 262 kts | 181° |
| 2026-04-21 05:27 | 35.03625 | -89.86551 | 7208 ft | 260 kts | 181° |
| 2026-04-21 05:27 | 35.01827 | -89.86524 | 6872 ft | 257 kts | 181° |
| 2026-04-21 05:27 | 35.00043 | -89.86498 | 6517 ft | 255 kts | 181° |
| 2026-04-21 05:28 | 34.98271 | -89.86475 | 6133 ft | 254 kts | 181° |
| 2026-04-21 05:28 | 34.96506 | -89.86452 | 5744 ft | 253 kts | 181° |
| 2026-04-21 05:28 | 34.94750 | -89.86429 | 5376 ft | 252 kts | 181° |
| 2026-04-21 05:28 | 34.93003 | -89.86406 | 4998 ft | 251 kts | 181° |
| 2026-04-21 05:29 | 34.91290 | -89.86385 | 4676 ft | 247 kts | 181° |
| 2026-04-21 05:29 | 34.89582 | -89.86363 | 4457 ft | 244 kts | 181° |
| 2026-04-21 05:29 | 34.87888 | -89.86345 | 4246 ft | 243 kts | 181° |
| 2026-04-21 05:29 | 34.86196 | -89.86326 | 4044 ft | 244 kts | 181° |
| 2026-04-21 05:30 | 34.84489 | -89.86304 | 3842 ft | 245 kts | 181° |
| 2026-04-21 05:30 | 34.82813 | -89.86481 | 3615 ft | 240 kts | 200° |
| 2026-04-21 05:30 | 34.81449 | -89.87594 | 3430 ft | 238 kts | 231° |
| 2026-04-21 05:30 | 34.80802 | -89.89387 | 3338 ft | 238 kts | 261° |
| 2026-04-21 05:31 | 34.80734 | -89.91416 | 3341 ft | 244 kts | 267° |
| 2026-04-21 05:31 | 34.80940 | -89.93479 | 3325 ft | 251 kts | 288° |
| 2026-04-21 05:31 | 34.81937 | -89.95233 | 3336 ft | 257 kts | 317° |
| 2026-04-21 05:31 | 34.83424 | -89.96446 | 3333 ft | 259 kts | 333° |
| 2026-04-21 05:32 | 34.85187 | -89.96953 | 3335 ft | 262 kts | 355° |
| 2026-04-21 05:32 | 34.86973 | -89.96969 | 3317 ft | 249 kts | 359° |
| 2026-04-21 05:32 | 34.88685 | -89.96960 | 3016 ft | 245 kts | 358° |
| 2026-04-21 05:32 | 34.90372 | -89.96990 | 2757 ft | 239 kts | 357° |
| 2026-04-21 05:33 | 34.92021 | -89.97025 | 2405 ft | 234 kts | 357° |
| 2026-04-21 05:33 | 34.93605 | -89.97057 | 2074 ft | 219 kts | 357° |
| 2026-04-21 05:33 | 34.95062 | -89.97087 | 1817 ft | 201 kts | 357° |
| 2026-04-21 05:33 | 34.96414 | -89.97116 | 1559 ft | 186 kts | 357° |
| 2026-04-21 05:34 | 34.97652 | -89.97141 | 1313 ft | 170 kts | 357° |
| 2026-04-21 05:34 | 34.98804 | -89.97166 | 1116 ft | 165 kts | 358° |
| 2026-04-21 05:34 | 34.99945 | -89.97192 | 862 ft | 163 kts | 358° |
| 2026-04-21 05:34 | 35.01072 | -89.97213 | 653 ft | 160 kts | 359° |
| 2026-04-21 05:35 | 35.02180 | -89.97238 | 431 ft | 160 kts | 358° |
| 2026-04-21 05:35 | 35.03246 | -89.97262 | 330 ft | 139 kts | 357° |
| 2026-04-21 05:35 | 35.04092 | -89.97280 | 311 ft | 99 kts | 359° |
| 2026-04-21 05:35 | 35.04629 | -89.97291 | 300 ft | 55 kts | 360° |
| 2026-04-21 05:36 | 35.04825 | -89.97298 | 297 ft | 19 kts | 340° |
| 2026-04-21 05:36 | 35.04866 | -89.97367 | 295 ft | 1 kts | 279° |
| 2026-04-21 05:36 | 35.04867 | -89.97380 | 295 ft | 2 kts | 274° |
| 2026-04-21 05:36 | 35.04867 | -89.97396 | 295 ft | 2 kts | 272° |
| 2026-04-21 05:37 | 35.04869 | -89.97453 | 296 ft | 10 kts | 271° |
| 2026-04-21 05:37 | 35.04888 | -89.97497 | 297 ft | 7 kts | 353° |
| 2026-04-21 05:37 | 35.04973 | -89.97482 | 296 ft | 22 kts | 6° |
| 2026-04-21 05:37 | 35.05126 | -89.97477 | 294 ft | 22 kts | 360° |
| 2026-04-21 05:38 | 35.05278 | -89.97480 | 287 ft | 22 kts | 358° |
| 2026-04-21 05:38 | 35.05430 | -89.97481 | 286 ft | 22 kts | 359° |
| 2026-04-21 05:38 | 35.05583 | -89.97487 | 284 ft | 22 kts | 359° |
| 2026-04-21 05:38 | 35.05735 | -89.97486 | 282 ft | 22 kts | 1° |
| 2026-04-21 05:39 | 35.05884 | -89.97501 | 282 ft | 22 kts | 343° |
| 2026-04-21 05:39 | 35.05973 | -89.97639 | 278 ft | 23 kts | 284° |
| 2026-04-21 05:39 | 35.06039 | -89.97791 | 275 ft | 19 kts | 339° |
| 2026-04-21 05:39 | 35.06177 | -89.97793 | 271 ft | 21 kts | 2° |
| 2026-04-21 05:40 | 35.06321 | -89.97802 | 269 ft | 21 kts | 327° |
| 2026-04-21 05:40 | 35.06352 | -89.97940 | 267 ft | 17 kts | 271° |
| 2026-04-21 05:40 | 35.06353 | -89.98067 | 266 ft | 12 kts | 265° |
| 2026-04-21 05:40 | 35.06315 | -89.98085 | 266 ft | 6 kts | 180° |
| 2026-04-21 05:41 | 35.06299 | -89.98085 | 266 ft | 0 kts | 179° |